createdAt,value
2017-11-19T00:09:05.000Z,24.27
2017-11-19T00:19:05.000Z,24.24
2017-11-19T00:29:05.000Z,24.2
2017-11-19T00:39:05.000Z,24.16
2017-11-19T00:49:05.000Z,24.13
2017-11-19T00:59:05.000Z,24.1
2017-11-19T01:09:05.000Z,24.05
2017-11-19T01:19:05.000Z,24.01
2017-11-19T01:29:05.000Z,23.98
2017-11-19T01:39:05.000Z,23.94
2017-11-19T01:49:05.000Z,23.89
2017-11-19T01:59:05.000Z,23.83
2017-11-19T02:09:05.000Z,23.8
2017-11-19T02:19:06.000Z,23.76
2017-11-19T02:29:07.000Z,23.7
2017-11-19T02:39:06.000Z,23.66
2017-11-19T02:49:06.000Z,23.63
2017-11-19T02:59:06.000Z,23.59
2017-11-19T03:09:06.000Z,23.51
2017-11-19T03:29:06.000Z,23.45
2017-11-19T03:39:06.000Z,23.4
2017-11-19T03:49:06.000Z,23.25
2017-11-19T03:59:06.000Z,23.2
2017-11-19T04:09:06.000Z,23.04
2017-11-19T04:19:06.000Z,22.92
2017-11-19T04:29:06.000Z,22.86
2017-11-19T04:39:06.000Z,22.79
2017-11-19T04:49:06.000Z,22.78
2017-11-19T04:59:06.000Z,22.79
2017-11-19T05:09:06.000Z,22.78
2017-11-19T05:19:06.000Z,22.81
2017-11-19T05:29:06.000Z,22.84
2017-11-19T05:39:06.000Z,22.96
2017-11-19T05:49:06.000Z,22.95
2017-11-19T05:59:06.000Z,22.96
2017-11-19T06:09:06.000Z,22.99
2017-11-19T06:19:06.000Z,23.09
2017-11-19T06:29:06.000Z,23.1
2017-11-19T06:39:06.000Z,23.13
2017-11-19T06:49:06.000Z,23.25
2017-11-19T06:59:06.000Z,23.3
2017-11-19T07:09:06.000Z,23.29
2017-11-19T07:19:06.000Z,23.32
2017-11-19T07:29:06.000Z,23.43
2017-11-19T07:39:06.000Z,23.46
2017-11-19T07:49:06.000Z,23.51
2017-11-19T07:59:06.000Z,23.49
2017-11-19T08:09:06.000Z,23.54
2017-11-19T08:19:06.000Z,23.66
2017-11-19T08:29:06.000Z,23.75
2017-11-19T08:39:06.000Z,23.86
2017-11-19T08:49:06.000Z,23.96
2017-11-19T08:59:06.000Z,23.93
2017-11-19T09:09:06.000Z,23.95
2017-11-19T09:19:06.000Z,24.03
2017-11-19T09:29:06.000Z,24.18
2017-11-19T09:39:06.000Z,24.11
2017-11-19T09:49:06.000Z,24.39
2017-11-19T09:59:06.000Z,24.92
2017-11-19T10:09:06.000Z,24.94
2017-11-19T10:19:06.000Z,25.06
2017-11-19T10:29:07.000Z,25.17
2017-11-19T10:39:07.000Z,25.03
2017-11-19T10:49:07.000Z,25.16
2017-11-19T10:59:07.000Z,25.14
2017-11-19T11:09:07.000Z,25
2017-11-19T11:19:07.000Z,25.17
2017-11-19T11:29:07.000Z,25.3
2017-11-19T11:39:07.000Z,25.48
2017-11-19T11:49:07.000Z,25.18
2017-11-19T11:59:07.000Z,25.62
2017-11-19T12:09:07.000Z,24.01
2017-11-19T12:19:07.000Z,23.64
2017-11-19T12:29:09.000Z,23.37
2017-11-19T12:49:07.000Z,24.67
2017-11-19T12:59:07.000Z,24.78
2017-11-19T13:09:07.000Z,24.85
2017-11-19T13:19:07.000Z,24.73
2017-11-19T13:29:07.000Z,24.72
2017-11-19T13:39:07.000Z,24.73
2017-11-19T13:49:07.000Z,24.79
2017-11-19T13:59:07.000Z,24.88
2017-11-19T14:09:07.000Z,24.86
2017-11-19T14:19:07.000Z,24.79
2017-11-19T14:29:07.000Z,24.76
2017-11-19T14:39:07.000Z,24.76
2017-11-19T14:49:07.000Z,24.78
2017-11-19T14:59:07.000Z,24.75
2017-11-19T15:09:07.000Z,24.73
2017-11-19T15:19:08.000Z,24.73
2017-11-19T15:29:07.000Z,24.7
2017-11-19T15:39:07.000Z,24.73
2017-11-19T15:49:07.000Z,24.65
2017-11-19T15:59:07.000Z,24.58
2017-11-19T16:09:07.000Z,24.68
2017-11-19T16:19:07.000Z,24.67
2017-11-19T16:29:07.000Z,24.72
2017-11-19T16:39:07.000Z,24.77
2017-11-19T16:49:07.000Z,24.78
2017-11-19T16:59:07.000Z,24.76
2017-11-19T17:09:07.000Z,24.81
2017-11-19T17:19:07.000Z,24.66
2017-11-19T17:29:08.000Z,24.76
2017-11-19T17:39:07.000Z,24.62
2017-11-19T17:49:07.000Z,24.72
2017-11-19T17:59:07.000Z,24.7
2017-11-19T18:09:07.000Z,24.72
2017-11-19T18:19:07.000Z,24.71
2017-11-19T18:29:07.000Z,24.69
2017-11-19T18:39:07.000Z,24.77
2017-11-19T18:49:09.000Z,24.73
2017-11-19T18:59:08.000Z,24.67
2017-11-19T19:09:08.000Z,24.67
2017-11-19T19:19:08.000Z,24.67
2017-11-19T19:29:08.000Z,24.65
2017-11-19T19:39:08.000Z,24.56
2017-11-19T19:49:08.000Z,24.55
2017-11-19T19:59:08.000Z,24.54
2017-11-19T20:09:08.000Z,24.53
2017-11-19T20:19:08.000Z,24.59
2017-11-19T20:29:08.000Z,24.5
2017-11-19T20:39:08.000Z,24.61
2017-11-19T20:49:08.000Z,24.53
2017-11-19T20:59:08.000Z,24.54
2017-11-19T21:09:08.000Z,24.54
2017-11-19T21:19:08.000Z,24.58
2017-11-19T21:29:08.000Z,24.48
2017-11-19T21:39:08.000Z,24.42
2017-11-19T21:49:09.000Z,24.48
2017-11-19T21:59:08.000Z,24.5
2017-11-19T22:09:08.000Z,24.47
2017-11-19T22:19:08.000Z,24.48
2017-11-19T22:29:08.000Z,24.45
2017-11-19T22:39:08.000Z,24.41
2017-11-19T22:49:08.000Z,24.39
2017-11-19T22:59:08.000Z,24.32
2017-11-19T23:09:08.000Z,24.26
2017-11-19T23:19:08.000Z,24.27
2017-11-19T23:29:08.000Z,24.2
2017-11-19T23:39:08.000Z,24.13
2017-11-19T23:49:08.000Z,24.07
2017-11-19T23:59:08.000Z,24.07
